Szafir — 5BFC3 — position and weather

sailwx.info

Track history (hours):
 
Tides and Currents Weather Stations Pressure Air Temp Water Temp Dewpoint Dewpoint Depression Visibility Wind Speed Wind Dir Waves Ship Positions

Szafir

Last reported at 2015-May-27 05:25 UTC. Time now 2015-May-30 06:35 UTC.
Position N 55°37' E 015°23'.

Length 113 m; draft 5.6 m.

Type: Ship. MMSI: 209366000.

Date/timePositionNaut miles runAvg speedWind from/ knotsBaromVisibWave heightAir tempDewpointWater temp
2015-May-27 05:25N 55°37' E 015°23'1112.2
2015-May-27 04:33N 55°32' E 015°06'1212.3
2015-May-27 03:33N 55°27' E 014°47'1211.8
2015-May-27 02:33N 55°18' E 014°32'1211.9
2015-May-27 01:33N 55°09' E 014°18'3612.0
2015-May-26 22:33N 55°13' E 013°16'1212.1
2015-May-26 21:33N 55°15' E 012°55'1110.7
2015-May-26 20:33N 55°20' E 012°38'1211.9
2015-May-26 19:33N 55°31' E 012°41'9 8.9
2015-May-26 18:33N 55°40' E 012°41'1111.4
2015-May-26 17:33N 55°51' E 012°39'1211.9
2015-May-26 16:34N 56°03' E 012°38'1212.0
2015-May-26 15:34N 56°11' E 012°22'1312.6
2015-May-26 14:31N 56°19' E 012°03'1313.2
2015-May-26 13:33N 56°31' E 011°58'1313.2
2015-May-26 12:33N 56°44' E 011°52'1313.1
2015-May-26 11:34N 56°56' E 011°45'1313.1
2015-May-26 10:33N 57°09' E 011°36'1312.7
2015-May-26 09:33N 57°21' E 011°28'1212.2
2015-May-26 08:33N 57°31' E 011°17'1313.5
2015-May-26 07:33N 57°40' E 010°59'1212.4
2015-May-26 06:33N 57°48' E 010°40'1512.9
2015-May-26 05:23N 57°44' E 010°13'27112.4
2015-May-25 07:33N 54°13' E 005°07'1212.4
2015-May-25 06:33N 54°02' E 004°58'1311.6
2015-May-25 05:26N 53°49' E 004°55'1111.5
2015-May-25 04:30N 53°39' E 004°52'1011.1
2015-May-25 03:34N 53°29' E 004°46'1110.8
2015-May-25 02:33N 53°19' E 004°40'1110.7
2015-May-25 01:33N 53°09' E 004°31'1111.0
2015-May-25 00:33N 52°60' E 004°22'1111.4
2015-May-24 23:33N 52°49' E 004°14'1111.4
2015-May-24 22:33N 52°39' E 004°07'1010.2
2015-May-24 21:33N 52°30' E 004°16'9 9.3
2015-May-24 20:33N 52°28' E 004°31'2 2.2
2015-May-24 19:32N 52°28' E 004°35'0 0.0
2015-May-24 18:32N 52°28' E 004°35'0 0.0
2015-May-24 17:32N 52°28' E 004°35'0 0.0
2015-May-24 16:32N 52°28' E 004°35'0 0.0
2015-May-24 15:34N 52°28' E 004°35'0 0.0
2015-May-24 14:33N 52°28' E 004°35'0 0.0
2015-May-24 13:34N 52°28' E 004°35'0 0.0
2015-May-24 12:34N 52°28' E 004°35'0 0.0
2015-May-24 11:33N 52°28' E 004°35'0 0.0
2015-May-24 10:33N 52°28' E 004°35'0 0.0
2015-May-24 09:34N 52°28' E 004°35'0 0.0
2015-May-24 08:34N 52°28' E 004°35'0 0.0
2015-May-24 07:34N 52°28' E 004°35'0 0.0
2015-May-24 06:34N 52°28' E 004°35'0 0.0
2015-May-24 05:33N 52°28' E 004°35'0 0.0
2015-May-24 04:34N 52°28' E 004°35'0 0.0
2015-May-24 03:34N 52°28' E 004°35'0 0.0
2015-May-24 02:34N 52°28' E 004°35'0 0.0
2015-May-24 01:34N 52°28' E 004°35'0 0.0
2015-May-24 00:34N 52°28' E 004°35'0 0.0
2015-May-23 23:34N 52°28' E 004°35'0 0.0
2015-May-23 22:33N 52°28' E 004°35'0 0.0
2015-May-23 21:34N 52°28' E 004°35'0 0.0
2015-May-23 20:34N 52°28' E 004°35'0 0.0
2015-May-23 19:34N 52°28' E 004°35'0 0.0
2015-May-23 18:33N 52°28' E 004°35'0 0.0
2015-May-23 17:34N 52°28' E 004°35'0 0.0
2015-May-23 16:33N 52°28' E 004°35'0 0.0
2015-May-23 15:33N 52°28' E 004°35'0 0.0
2015-May-23 14:34N 52°28' E 004°35'0 0.0
2015-May-23 13:34N 52°28' E 004°35'0 0.0
2015-May-23 12:34N 52°28' E 004°35'0 0.0
2015-May-23 11:34N 52°28' E 004°35'0 0.0
2015-May-23 10:33N 52°28' E 004°35'0 0.0
2015-May-23 09:33N 52°28' E 004°35'0 0.0
2015-May-23 08:33N 52°28' E 004°35'0 0.0
2015-May-23 07:33N 52°28' E 004°35'0 0.0
2015-May-23 06:33N 52°28' E 004°35'0 0.0
2015-May-23 05:33N 52°28' E 004°35'0 0.2
2015-May-23 04:34N 52°28' E 004°34'6 6.2
2015-May-23 03:34N 52°28' E 004°24'6 5.7
2015-May-23 02:33N 52°28' E 004°15'8 8.0
2015-May-23 01:33N 52°28' E 004°02'7 6.8
2015-May-23 00:34N 52°25' E 003°51'4 4.0
2015-May-22 23:34N 52°23' E 003°45'4 4.3
2015-May-22 22:33N 52°22' E 003°39'5 5.0
2015-May-22 21:33N 52°20' E 003°31'5 5.5
2015-May-22 20:33N 52°18' E 003°23'6 6.0
2015-May-22 19:33N 52°14' E 003°16'8 7.7
2015-May-22 18:33N 52°08' E 003°07'1010.3
2015-May-22 17:33N 52°00' E 002°56'2311.3
2015-May-22 15:29N 51°42' E 002°32'1111.4
2015-May-22 14:33N 51°34' E 002°21'1211.7
2015-May-22 13:34N 51°24' E 002°12'1010.3
2015-May-22 12:33N 51°15' E 002°04'9 9.6
2015-May-22 11:33N 51°09' E 001°52'9 8.6
2015-May-22 10:34N 51°04' E 001°41'8 8.0
2015-May-22 09:34N 50°58' E 001°33'8 8.2
2015-May-22 08:33N 50°51' E 001°26'10 9.2
2015-May-22 07:25N 50°41' E 001°19'28811.1
2015-May-21 05:33N 48°49' W 005°31'  
2015-May-17 22:33N 39°11' W 009°50'11 9.8
2015-May-17 21:27N 39°00' W 009°50'10 9.6
2015-May-17 20:25N 38°51' W 009°51'8 9.3
2015-May-17 19:33N 38°43' W 009°51'9 9.1
2015-May-17 18:33N 38°33' W 009°51'9 9.4
2015-May-17 17:33N 38°24' W 009°51'9 9.4
2015-May-17 16:33N 38°15' W 009°51'10 9.6
2015-May-17 15:33N 38°05' W 009°51'10 9.7
2015-May-17 14:33N 37°55' W 009°51'9 9.3
2015-May-17 13:33N 37°46' W 009°51'9 9.0
2015-May-17 12:33N 37°37' W 009°50'9 9.3
2015-May-17 11:34N 37°28' W 009°50'9 9.2
2015-May-17 10:33N 37°19' W 009°50'10 9.6
2015-May-17 09:33N 37°09' W 009°50'10 9.7
2015-May-17 08:31N 36°59' W 009°50'9 9.4
2015-May-17 07:33N 36°50' W 009°51'9 9.1
2015-May-17 06:33N 36°41' W 009°51'  
Track history (hours):
 
Tides and Currents Weather Stations Pressure Air Temp Water Temp Dewpoint Dewpoint Depression Visibility Wind Speed Wind Dir Waves Ship Positions

Szafir

Last reported at 2015-May-27 05:25 UTC. Time now 2015-May-30 06:35 UTC.
Position N 55°37' E 015°23'.

Length 113 m; draft 5.6 m.

Type: Ship. MMSI: 209366000.

Date/timePositionNaut miles runAvg speedWind from/ knotsBaromVisibWave heightAir tempDewpointWater temp
2015-May-27 05:25N 55°37' E 015°23'1112.2
2015-May-27 04:33N 55°32' E 015°06'1212.3
2015-May-27 03:33N 55°27' E 014°47'1211.8
2015-May-27 02:33N 55°18' E 014°32'1211.9
2015-May-27 01:33N 55°09' E 014°18'3612.0
2015-May-26 22:33N 55°13' E 013°16'1212.1
2015-May-26 21:33N 55°15' E 012°55'1110.7
2015-May-26 20:33N 55°20' E 012°38'1211.9
2015-May-26 19:33N 55°31' E 012°41'9 8.9
2015-May-26 18:33N 55°40' E 012°41'1111.4
2015-May-26 17:33N 55°51' E 012°39'1211.9
2015-May-26 16:34N 56°03' E 012°38'1212.0
2015-May-26 15:34N 56°11' E 012°22'1312.6
2015-May-26 14:31N 56°19' E 012°03'1313.2
2015-May-26 13:33N 56°31' E 011°58'1313.2
2015-May-26 12:33N 56°44' E 011°52'1313.1
2015-May-26 11:34N 56°56' E 011°45'1313.1
2015-May-26 10:33N 57°09' E 011°36'1312.7
2015-May-26 09:33N 57°21' E 011°28'1212.2
2015-May-26 08:33N 57°31' E 011°17'1313.5
2015-May-26 07:33N 57°40' E 010°59'1212.4
2015-May-26 06:33N 57°48' E 010°40'1512.9
2015-May-26 05:23N 57°44' E 010°13'27112.4
2015-May-25 07:33N 54°13' E 005°07'1212.4
2015-May-25 06:33N 54°02' E 004°58'1311.6
2015-May-25 05:26N 53°49' E 004°55'1111.5
2015-May-25 04:30N 53°39' E 004°52'1011.1
2015-May-25 03:34N 53°29' E 004°46'1110.8
2015-May-25 02:33N 53°19' E 004°40'1110.7
2015-May-25 01:33N 53°09' E 004°31'1111.0
2015-May-25 00:33N 52°60' E 004°22'1111.4
2015-May-24 23:33N 52°49' E 004°14'1111.4
2015-May-24 22:33N 52°39' E 004°07'1010.2
2015-May-24 21:33N 52°30' E 004°16'9 9.3
2015-May-24 20:33N 52°28' E 004°31'2 2.2
2015-May-24 19:32N 52°28' E 004°35'0 0.0
2015-May-24 18:32N 52°28' E 004°35'0 0.0
2015-May-24 17:32N 52°28' E 004°35'0 0.0
2015-May-24 16:32N 52°28' E 004°35'0 0.0
2015-May-24 15:34N 52°28' E 004°35'0 0.0
2015-May-24 14:33N 52°28' E 004°35'0 0.0
2015-May-24 13:34N 52°28' E 004°35'0 0.0
2015-May-24 12:34N 52°28' E 004°35'0 0.0
2015-May-24 11:33N 52°28' E 004°35'0 0.0
2015-May-24 10:33N 52°28' E 004°35'0 0.0
2015-May-24 09:34N 52°28' E 004°35'0 0.0
2015-May-24 08:34N 52°28' E 004°35'0 0.0
2015-May-24 07:34N 52°28' E 004°35'0 0.0
2015-May-24 06:34N 52°28' E 004°35'0 0.0
2015-May-24 05:33N 52°28' E 004°35'0 0.0
2015-May-24 04:34N 52°28' E 004°35'0 0.0
2015-May-24 03:34N 52°28' E 004°35'0 0.0
2015-May-24 02:34N 52°28' E 004°35'0 0.0
2015-May-24 01:34N 52°28' E 004°35'0 0.0
2015-May-24 00:34N 52°28' E 004°35'0 0.0
2015-May-23 23:34N 52°28' E 004°35'0 0.0
2015-May-23 22:33N 52°28' E 004°35'0 0.0
2015-May-23 21:34N 52°28' E 004°35'0 0.0
2015-May-23 20:34N 52°28' E 004°35'0 0.0
2015-May-23 19:34N 52°28' E 004°35'0 0.0
2015-May-23 18:33N 52°28' E 004°35'0 0.0
2015-May-23 17:34N 52°28' E 004°35'0 0.0
2015-May-23 16:33N 52°28' E 004°35'0 0.0
2015-May-23 15:33N 52°28' E 004°35'0 0.0
2015-May-23 14:34N 52°28' E 004°35'0 0.0
2015-May-23 13:34N 52°28' E 004°35'0 0.0
2015-May-23 12:34N 52°28' E 004°35'0 0.0
2015-May-23 11:34N 52°28' E 004°35'0 0.0
2015-May-23 10:33N 52°28' E 004°35'0 0.0
2015-May-23 09:33N 52°28' E 004°35'0 0.0
2015-May-23 08:33N 52°28' E 004°35'0 0.0
2015-May-23 07:33N 52°28' E 004°35'0 0.0
2015-May-23 06:33N 52°28' E 004°35'0 0.0
2015-May-23 05:33N 52°28' E 004°35'0 0.2
2015-May-23 04:34N 52°28' E 004°34'6 6.2
2015-May-23 03:34N 52°28' E 004°24'6 5.7
2015-May-23 02:33N 52°28' E 004°15'8 8.0
2015-May-23 01:33N 52°28' E 004°02'7 6.8
2015-May-23 00:34N 52°25' E 003°51'4 4.0
2015-May-22 23:34N 52°23' E 003°45'4 4.3
2015-May-22 22:33N 52°22' E 003°39'5 5.0
2015-May-22 21:33N 52°20' E 003°31'5 5.5
2015-May-22 20:33N 52°18' E 003°23'6 6.0
2015-May-22 19:33N 52°14' E 003°16'8 7.7
2015-May-22 18:33N 52°08' E 003°07'1010.3
2015-May-22 17:33N 52°00' E 002°56'2311.3
2015-May-22 15:29N 51°42' E 002°32'1111.4
2015-May-22 14:33N 51°34' E 002°21'1211.7
2015-May-22 13:34N 51°24' E 002°12'1010.3
2015-May-22 12:33N 51°15' E 002°04'9 9.6
2015-May-22 11:33N 51°09' E 001°52'9 8.6
2015-May-22 10:34N 51°04' E 001°41'8 8.0
2015-May-22 09:34N 50°58' E 001°33'8 8.2
2015-May-22 08:33N 50°51' E 001°26'10 9.2
2015-May-22 07:25N 50°41' E 001°19'28811.1
2015-May-21 05:33N 48°49' W 005°31'  
2015-May-17 22:33N 39°11' W 009°50'11 9.8
2015-May-17 21:27N 39°00' W 009°50'10 9.6
2015-May-17 20:25N 38°51' W 009°51'8 9.3
2015-May-17 19:33N 38°43' W 009°51'9 9.1
2015-May-17 18:33N 38°33' W 009°51'9 9.4
2015-May-17 17:33N 38°24' W 009°51'9 9.4
2015-May-17 16:33N 38°15' W 009°51'10 9.6
2015-May-17 15:33N 38°05' W 009°51'10 9.7
2015-May-17 14:33N 37°55' W 009°51'9 9.3
2015-May-17 13:33N 37°46' W 009°51'9 9.0
2015-May-17 12:33N 37°37' W 009°50'9 9.3
2015-May-17 11:34N 37°28' W 009°50'9 9.2
2015-May-17 10:33N 37°19' W 009°50'10 9.6
2015-May-17 09:33N 37°09' W 009°50'10 9.7
2015-May-17 08:31N 36°59' W 009°50'9 9.4
2015-May-17 07:33N 36°50' W 009°51'9 9.1
2015-May-17 06:33N 36°41' W 009°51'  

Dump ship's entire track history